EGPFEGPH

Guest
Details From EGPF - Glasgow
To EGPH - Edinburgh
Flight Number -
Tags Routegen Generated
Created
Modified
Stats Distance 36 nm / 68 km
Max Altitude 100 ft / 30 m
Waypoints 5
Social Downloads 10
Likes 0
Share

Download

Looking for another format? Having issues loading an existing format? Contact us
Advertisement - Login to hide

Notes

Departing runway 4 EGPF. Arriving runway 5 EGPH.

Route

EGPF +55.93_-004.32 +55.92_-003.91 +55.91_-003.50 EGPH

ID Type Via Altitude (ft/m) Position (lat/lon) Dist (leg/tot) Name
O EGPF APT - 0 / 0 55.87994 / -4.41831 - / 0 nm
+55.93_-004.32 LATLON - 100 / 30 55.92985 / -4.32483 4 / 4 nm
+55.92_-003.91 LATLON - 100 / 30 55.91816 / -3.91271 13 / 18 nm
+55.91_-003.50 LATLON - 100 / 30 55.90648 / -3.50059 13 / 32 nm
O EGPH APT - 0 / 0 55.94400 / -3.39014 4 / 36 nm

Altitude Profile

Advertisement - Login to hide

EGPF

Details ICAO EGPF (GLA)
Name Glasgow
Region United Kingdom
Timezone Europe/London (UTC+1.0)
Stats Elevation 26 ft / 8 m (AMSL)
Location 55.871700° -4.433700°
Runways 1
Magnetic Variation 2.251° W

METAR

EGPF 011920Z AUTO 24006KT 9999 NCD 04/03 Q0994

Decode

TAF

TAF EGPF 011657Z 0118/0218 26005KT 9999 FEW045 TEMPO 0121/0209 4000 BR MIFG PROB30 0200/0208 0300 FG VV///

Decode

Departure Runways

ID Width Length Bearing (true/mag) Surface Threshold Overrun Markings Lighting
05 148 ft / 45 m 8,699 ft / 2,651 m 46.34° / 48.59° ASPHALT 0 ft / 0 m 489 ft / 149 m PREC-APP CENTERLINE EDGE THRESHOLD MALSF
23 148 ft / 45 m 8,699 ft / 2,651 m 226.36° / 228.61° ASPHALT 974 ft / 297 m 0 ft / 0 m PREC-APP CENTERLINE EDGE THRESHOLD MALSF

EGPH

Details ICAO EGPH (EDI)
Name Edinburgh
Region United Kingdom
Timezone Europe/London (UTC+1.0)
Stats Elevation 136 ft / 41 m (AMSL)
Location 55.950000° -3.372500°
Runways 1
Magnetic Variation 1.828° W

METAR

EGPH 011920Z 23003KT 9999 FEW018 08/07 Q0994

Decode

TAF

TAF EGPH 011657Z 0118/0218 23004KT 9999 FEW014 PROB40 TEMPO 0200/0208 5000 BR BECMG 0209/0212 06010KT

Decode

Destination Runways

ID Width Length Bearing (true/mag) Surface Threshold Overrun Markings Lighting
06 150 ft / 46 m 8,369 ft / 2,551 m 58.80° / 60.62° ASPHALT 692 ft / 211 m 190 ft / 58 m PREC-APP CENTERLINE EDGE THRESHOLD CALVERT TDZ REIL-OMNI
24 150 ft / 46 m 8,369 ft / 2,551 m 238.82° / 240.65° ASPHALT 682 ft / 208 m 194 ft / 59 m PREC-APP CENTERLINE EDGE THRESHOLD CALVERT TDZ REIL-OMNI

Approach Navaids

Runway Type Ident Frequency Range Bearing (true/mag) Slope Elevation
06 DME IVG 108.90 MHz 18 nm / 33 km - - 123 ft / 37 m (AMSL)
06 GS IVG 108.90 MHz 10 nm / 19 km 58.81° / 60.64 ° 3.00° 136 ft / 41 m (AMSL)
06 LOC-ILS IVG 108.90 MHz 18 nm / 33 km 58.81° / 60.64 ° - 136 ft / 41 m (AMSL)
24 LOC-ILS ITH 108.90 MHz 18 nm / 33 km 238.81° / 240.64 ° - 136 ft / 41 m (AMSL)
24 GS ITH 108.90 MHz 10 nm / 19 km 238.81° / 240.64 ° 3.00° 136 ft / 41 m (AMSL)
24 DME ITH 108.90 MHz 18 nm / 33 km - - 123 ft / 37 m (AMSL)

Popular Alternatives